Time;durP1;ratioP1;P1;durP2;ratioP2;P2;SDS_P1;SDS_P2;PMS_P1;PMS_P2;Temp;Humidity;BMP_temperature;BMP_pressure;BME280_temperature;BME280_humidity;BME280_pressure;Samples;Min_cycle;Max_cycle;Signal;HPM_P1;HPM_P2
2023/06/26 00:00:49;;;;;;;7.88;6.00;;;24.30;92.50;;;;;;4980254;28;20030;-84
2023/06/26 00:03:15;;;;;;;7.70;6.13;;;24.20;92.60;;;;;;4980441;28;20026;-84
2023/06/26 00:05:42;;;;;;;7.30;6.60;;;24.20;92.60;;;;;;4980615;28;20033;-84
2023/06/26 00:08:07;;;;;;;6.97;6.30;;;24.20;92.70;;;;;;4981045;28;20030;-83
2023/06/26 00:10:33;;;;;;;6.22;5.63;;;24.10;92.70;;;;;;4964838;28;20026;-84
2023/06/26 00:13:00;;;;;;;6.50;5.63;;;24.10;92.80;;;;;;4964938;28;20026;-85
2023/06/26 00:15:25;;;;;;;6.55;5.95;;;24.10;92.80;;;;;;4965051;28;20037;-84
2023/06/26 00:17:51;;;;;;;6.55;5.70;;;24.10;92.80;;;;;;4994351;28;20093;-84
2023/06/26 00:20:18;;;;;;;6.95;6.25;;;24.10;92.90;;;;;;4988143;28;20051;-84
2023/06/26 00:22:45;;;;;;;7.32;6.57;;;24.00;92.90;;;;;;4988796;28;20048;-83
2023/06/26 00:25:12;;;;;;;6.57;5.90;;;24.00;93.00;;;;;;4971551;28;20058;-84
2023/06/26 00:27:37;;;;;;;7.18;6.47;;;24.00;93.00;;;;;;5003227;28;20083;-84
2023/06/26 00:30:03;;;;;;;6.90;6.20;;;23.90;93.00;;;;;;4997481;28;20486;-84
2023/06/26 00:32:29;;;;;;;6.97;6.30;;;23.90;93.00;;;;;;4964589;28;20031;-84
2023/06/26 00:34:54;;;;;;;7.90;6.30;;;23.90;93.00;;;;;;4948195;28;20041;-84
2023/06/26 00:37:21;;;;;;;7.25;6.25;;;23.80;93.00;;;;;;4948005;28;20027;-84
2023/06/26 00:39:47;;;;;;;6.70;6.00;;;23.80;93.00;;;;;;4963903;28;20026;-84
2023/06/26 00:42:13;;;;;;;6.78;6.00;;;23.80;93.10;;;;;;4963534;28;20360;-84
2023/06/26 00:44:38;;;;;;;7.03;6.38;;;23.80;93.10;;;;;;4979716;28;20027;-84
2023/06/26 00:47:04;;;;;;;6.70;6.10;;;23.80;93.10;;;;;;4979293;28;20027;-84
2023/06/26 00:49:30;;;;;;;7.28;6.10;;;23.70;93.10;;;;;;4979358;28;20018;-84
2023/06/26 00:51:56;;;;;;;6.65;5.95;;;23.70;93.10;;;;;;4947254;28;20048;-84
2023/06/26 00:54:22;;;;;;;7.15;6.45;;;23.70;93.10;;;;;;4979071;28;20064;-84
2023/06/26 00:56:48;;;;;;;7.93;6.35;;;23.70;93.20;;;;;;4963158;28;20448;-84
2023/06/26 00:59:14;;;;;;;7.38;6.68;;;23.60;93.20;;;;;;4963114;28;20065;-84
2023/06/26 01:01:40;;;;;;;7.22;6.53;;;23.60;93.20;;;;;;4979226;28;20073;-84
2023/06/26 01:04:06;;;;;;;7.93;7.13;;;23.60;93.30;;;;;;4979112;28;20041;-84
2023/06/26 01:06:36;;;;;;;7.72;6.97;;;23.60;93.30;;;;;;4962596;28;20373;-84
2023/06/26 01:09:02;;;;;;;7.88;7.07;;;23.60;93.30;;;;;;4978897;28;20117;-84
2023/06/26 01:11:28;;;;;;;8.65;6.78;;;23.60;93.30;;;;;;4978912;28;20421;-84
2023/06/26 01:13:56;;;;;;;6.72;6.03;;;23.50;93.30;;;;;;4963067;28;20142;-84
2023/06/26 01:16:24;;;;;;;7.53;6.57;;;23.50;93.30;;;;;;4963188;28;20027;-84
2023/06/26 01:18:50;;;;;;;7.35;6.65;;;23.50;93.40;;;;;;4996596;28;20039;-84
2023/06/26 01:21:17;;;;;;;7.63;6.93;;;23.50;93.40;;;;;;4979221;28;20423;-83
2023/06/26 01:24:20;;;;;;;7.70;6.70;;;23.50;93.40;;;;;;4979077;28;20034;-84
2023/06/26 01:26:48;;;;;;;7.25;6.55;;;23.50;93.50;;;;;;4977035;28;20034;-84
2023/06/26 01:29:16;;;;;;;8.15;6.93;;;23.50;93.50;;;;;;4963263;28;20037;-84
2023/06/26 01:31:43;;;;;;;7.35;6.65;;;23.50;93.50;;;;;;4996539;28;20476;-84
2023/06/26 01:34:09;;;;;;;8.05;7.28;;;23.50;93.50;;;;;;4996171;28;20046;-84
2023/06/26 01:36:37;;;;;;;8.30;6.78;;;23.40;93.50;;;;;;4995926;28;20030;-84
2023/06/26 01:39:02;;;;;;;8.15;7.35;;;23.40;93.40;;;;;;4978820;28;20097;-84
2023/06/26 01:41:28;;;;;;;7.97;7.18;;;23.50;93.30;;;;;;4962598;28;20030;-84
2023/06/26 01:44:06;;;;;;;8.25;7.43;;;23.60;93.20;;;;;;4962494;28;20125;-84
2023/06/26 01:46:43;;;;;;;8.15;7.07;;;23.50;93.20;;;;;;4978037;28;20116;-84
2023/06/26 01:49:39;;;;;;;8.63;7.03;;;23.50;93.10;;;;;;4978601;28;20038;-83
2023/06/26 01:52:28;;;;;;;8.65;7.78;;;23.60;93.10;;;;;;4996218;28;20026;-84
2023/06/26 01:55:19;;;;;;;7.63;6.90;;;23.60;93.10;;;;;;4995760;28;20502;-84
2023/06/26 01:57:46;;;;;;;8.23;7.07;;;23.60;93.00;;;;;;4996471;28;20058;-84
2023/06/26 02:00:17;;;;;;;8.40;7.10;;;23.60;92.90;;;;;;4978684;28;20037;-84
2023/06/26 02:02:44;;;;;;;6.50;6.00;;;23.60;92.90;;;;;;4978251;28;20030;-84
2023/06/26 02:05:09;;;;;;;7.05;6.20;;;23.50;92.80;;;;;;4962241;28;20030;-84
2023/06/26 02:07:35;;;;;;;7.18;6.47;;;23.60;92.80;;;;;;4978146;28;20029;-84
2023/06/26 02:10:02;;;;;;;6.85;6.25;;;23.60;92.70;;;;;;4962445;28;20456;-84
2023/06/26 02:12:27;;;;;;;9.70;6.40;;;23.60;92.70;;;;;;4978434;28;20119;-84
2023/06/26 02:14:53;;;;;;;7.07;6.35;;;23.60;92.60;;;;;;4962275;28;20042;-84
2023/06/26 02:17:19;;;;;;;6.22;5.63;;;23.60;92.60;;;;;;4996327;28;20102;-84
2023/06/26 02:19:47;;;;;;;6.63;5.75;;;23.50;92.60;;;;;;4973568;28;20118;-84
2023/06/26 02:22:15;;;;;;;6.22;5.63;;;23.50;92.60;;;;;;4959758;28;20034;-84
2023/06/26 02:24:41;;;;;;;6.93;5.63;;;23.50;92.60;;;;;;4986441;28;20033;-84
2023/06/26 02:27:07;;;;;;;5.75;5.03;;;23.50;92.60;;;;;;5017542;28;20026;-84
2023/06/26 02:29:32;;;;;;;6.82;4.68;;;23.50;92.60;;;;;;4998307;28;20045;-84
2023/06/26 02:31:58;;;;;;;5.15;4.07;;;23.50;92.50;;;;;;4995280;28;20038;-83
2023/06/26 02:34:24;;;;;;;4.80;3.92;;;23.40;92.50;;;;;;4963684;28;20037;-83
2023/06/26 02:36:49;;;;;;;5.68;4.10;;;23.40;92.40;;;;;;4978051;28;20076;-84
2023/06/26 02:39:15;;;;;;;4.85;3.70;;;23.40;92.40;;;;;;4976696;28;20086;-83
2023/06/26 02:41:46;;;;;;;4.82;3.72;;;23.40;92.30;;;;;;4944890;28;20487;-84
2023/06/26 02:44:12;;;;;;;5.22;3.90;;;23.40;92.20;;;;;;4961627;28;20030;-84
2023/06/26 02:46:38;;;;;;;6.18;3.97;;;23.30;92.20;;;;;;4977445;28;20045;-84
2023/06/26 02:49:04;;;;;;;4.72;3.63;;;23.30;92.20;;;;;;4977023;28;20117;-84
2023/06/26 02:51:32;;;;;;;4.30;3.75;;;23.30;92.20;;;;;;4961211;28;20069;-83
2023/06/26 02:53:57;;;;;;;7.28;4.07;;;23.30;92.20;;;;;;4961137;28;20042;-84
2023/06/26 02:56:23;;;;;;;5.68;3.72;;;23.30;92.20;;;;;;4945259;28;20395;-85
2023/06/26 02:58:49;;;;;;;7.60;4.20;;;23.30;92.20;;;;;;4960861;28;20027;-84
2023/06/26 03:01:14;;;;;;;5.72;4.00;;;23.20;92.20;;;;;;4977031;28;20038;-84
2023/06/26 03:03:41;;;;;;;5.03;3.55;;;23.20;92.30;;;;;;4976653;28;20038;-84
2023/06/26 03:06:07;;;;;;;7.40;3.38;;;23.10;92.20;;;;;;4960684;28;20030;-84
2023/06/26 03:08:37;;;;;;;5.22;3.90;;;23.10;92.30;;;;;;4977062;28;20443;-84
2023/06/26 03:11:03;;;;;;;5.07;3.38;;;23.10;92.30;;;;;;4994166;28;20053;-84
2023/06/26 03:13:28;;;;;;;7.65;4.43;;;23.00;92.30;;;;;;4960923;28;20483;-83
2023/06/26 03:15:54;;;;;;;6.38;3.42;;;23.10;92.40;;;;;;4961286;28;20033;-84
2023/06/26 03:18:20;;;;;;;7.65;3.65;;;23.00;92.50;;;;;;4977168;28;20027;-84
2023/06/26 03:20:46;;;;;;;6.93;3.70;;;23.00;92.50;;;;;;4944809;28;20058;-84
2023/06/26 03:23:11;;;;;;;5.15;3.17;;;22.90;92.60;;;;;;4960721;28;20037;-84
2023/06/26 03:25:37;;;;;;;4.80;3.38;;;22.90;92.60;;;;;;4944735;28;20031;-84
2023/06/26 03:28:03;;;;;;;4.68;3.60;;;22.90;92.70;;;;;;4976786;28;20361;-84
2023/06/26 03:30:31;;;;;;;5.40;3.92;;;22.90;92.70;;;;;;4944818;28;20180;-84
2023/06/26 03:32:57;;;;;;;5.65;3.58;;;22.90;92.80;;;;;;4945769;28;20019;-84
2023/06/26 03:35:23;;;;;;;8.45;4.15;;;22.90;92.80;;;;;;4964396;28;20506;-84
2023/06/26 03:37:49;;;;;;;5.15;3.60;;;22.90;92.90;;;;;;4980803;28;20027;-84
2023/06/26 03:40:15;;;;;;;6.53;3.75;;;22.90;92.90;;;;;;4964542;28;20054;-84
2023/06/26 03:42:42;;;;;;;6.70;4.05;;;22.90;93.00;;;;;;4980167;28;20026;-84
2023/06/26 03:45:08;;;;;;;7.75;4.03;;;22.80;93.10;;;;;;4980998;28;20026;-84
2023/06/26 03:47:33;;;;;;;7.80;4.28;;;22.80;93.20;;;;;;4997653;28;20090;-84
2023/06/26 03:49:59;;;;;;;5.75;3.70;;;22.80;93.30;;;;;;4964342;28;20061;-84
2023/06/26 03:52:25;;;;;;;8.80;4.53;;;22.70;93.40;;;;;;4997831;28;20449;-84
2023/06/26 03:54:51;;;;;;;6.22;4.07;;;22.80;93.50;;;;;;4964113;28;20046;-84
2023/06/26 03:57:16;;;;;;;7.90;4.05;;;22.80;93.50;;;;;;4964658;28;20031;-85
2023/06/26 03:59:42;;;;;;;6.93;4.22;;;22.80;93.60;;;;;;4980173;28;20049;-85
2023/06/26 04:02:07;;;;;;;6.80;3.88;;;22.80;93.60;;;;;;4964217;28;20121;-84
2023/06/26 04:04:33;;;;;;;8.10;3.60;;;22.70;93.70;;;;;;4980076;28;20030;-83
2023/06/26 04:06:59;;;;;;;7.55;4.13;;;22.70;93.70;;;;;;4948136;28;20161;-84
2023/06/26 04:09:25;;;;;;;6.78;4.00;;;22.70;93.80;;;;;;4980264;28;20031;-85
2023/06/26 04:11:51;;;;;;;7.40;4.47;;;22.70;93.80;;;;;;4980194;28;20061;-85
2023/06/26 04:14:17;;;;;;;8.95;4.13;;;22.70;93.90;;;;;;4980370;28;20034;-85
2023/06/26 04:16:43;;;;;;;6.30;3.95;;;22.70;93.90;;;;;;4964175;28;20038;-85
2023/06/26 04:19:10;;;;;;;7.75;4.55;;;22.70;94.00;;;;;;4998729;28;20026;-84
2023/06/26 04:21:36;;;;;;;6.93;4.20;;;22.60;94.00;;;;;;4998643;28;20077;-84
2023/06/26 04:24:01;;;;;;;8.68;4.50;;;22.60;94.10;;;;;;4982172;28;20387;-84
2023/06/26 04:26:27;;;;;;;8.93;4.78;;;22.60;94.10;;;;;;4951879;28;20031;-84
2023/06/26 04:28:54;;;;;;;8.07;4.30;;;22.60;94.20;;;;;;4995307;28;20027;-84
2023/06/26 04:31:19;;;;;;;7.28;3.97;;;22.60;94.30;;;;;;5021547;28;20018;-85
2023/06/26 04:33:50;;;;;;;7.38;4.53;;;22.60;94.40;;;;;;4988373;28;20022;-84
2023/06/26 04:36:17;;;;;;;10.15;4.70;;;22.60;94.40;;;;;;4988728;28;20049;-84
2023/06/26 04:38:43;;;;;;;9.65;4.80;;;22.60;94.50;;;;;;5019707;28;20041;-84
2023/06/26 04:41:08;;;;;;;8.07;4.53;;;22.60;94.60;;;;;;5018295;28;20050;-85
2023/06/26 04:43:34;;;;;;;8.10;4.32;;;22.50;94.60;;;;;;5009077;28;20030;-85
2023/06/26 04:46:00;;;;;;;9.20;4.32;;;22.60;94.70;;;;;;4963071;28;20435;-85
2023/06/26 04:48:27;;;;;;;8.35;4.78;;;22.50;94.70;;;;;;4963299;28;20385;-85
2023/06/26 04:50:54;;;;;;;10.20;4.97;;;22.60;94.70;;;;;;4963636;28;20026;-85
2023/06/26 04:53:23;;;;;;;10.20;4.70;;;22.50;94.80;;;;;;4947379;28;20037;-84
2023/06/26 04:55:52;;;;;;;9.25;4.82;;;22.50;94.80;;;;;;4979155;28;20030;-85
2023/06/26 04:58:19;;;;;;;8.68;4.75;;;22.50;94.90;;;;;;4979369;28;20026;-84
2023/06/26 05:00:44;;;;;;;13.50;5.00;;;22.50;94.90;;;;;;4997208;28;20023;-84
2023/06/26 05:03:12;;;;;;;9.55;4.82;;;22.50;95.00;;;;;;4963427;28;20101;-84
2023/06/26 05:05:38;;;;;;;9.70;4.82;;;22.50;94.90;;;;;;4979774;28;20475;-84
2023/06/26 05:08:22;;;;;;;15.80;5.40;;;22.50;95.00;;;;;;4979321;28;20160;-84
2023/06/26 05:10:49;;;;;;;9.23;4.60;;;22.50;95.00;;;;;;4963316;28;20379;-84
2023/06/26 05:13:17;;;;;;;10.77;4.70;;;22.40;95.00;;;;;;4979243;28;20022;-85
2023/06/26 05:15:43;;;;;;;9.27;4.38;;;22.40;95.00;;;;;;4979683;28;20098;-85
2023/06/26 05:18:09;;;;;;;8.52;4.32;;;22.40;95.00;;;;;;4963464;28;20036;-85
2023/06/26 05:20:36;;;;;;;7.75;4.50;;;22.40;95.00;;;;;;4979087;28;20055;-85
2023/06/26 05:23:02;;;;;;;7.22;4.50;;;22.50;95.00;;;;;;4947311;28;20054;-85
2023/06/26 05:25:29;;;;;;;9.23;4.40;;;22.50;95.00;;;;;;4963210;28;20030;-85
2023/06/26 05:27:56;;;;;;;11.73;4.60;;;22.50;94.90;;;;;;4996600;28;20022;-85
2023/06/26 05:30:25;;;;;;;10.40;5.03;;;22.50;94.90;;;;;;4979206;28;20034;-85
2023/06/26 05:32:51;;;;;;;7.95;4.20;;;22.50;94.90;;;;;;4979135;28;20054;-85
2023/06/26 05:35:18;;;;;;;8.90;4.40;;;22.50;94.80;;;;;;4978559;28;20045;-84
2023/06/26 05:37:44;;;;;;;7.38;4.05;;;22.50;94.80;;;;;;4996367;28;20109;-84
2023/06/26 05:40:10;;;;;;;9.63;4.53;;;22.50;94.70;;;;;;4996400;28;20500;-84
2023/06/26 05:42:36;;;;;;;8.57;4.20;;;22.50;94.70;;;;;;4962293;28;20022;-85
2023/06/26 05:45:02;;;;;;;8.57;4.22;;;22.60;94.70;;;;;;4962527;28;20097;-85
2023/06/26 05:47:28;;;;;;;9.18;4.43;;;22.60;94.70;;;;;;4946518;28;20033;-84
2023/06/26 05:49:53;;;;;;;8.60;4.20;;;22.60;94.60;;;;;;4995975;28;20499;-85
2023/06/26 05:52:19;;;;;;;5.63;3.20;;;22.60;94.50;;;;;;4978580;28;20022;-84
2023/06/26 05:54:45;;;;;;;8.73;4.28;;;22.60;94.40;;;;;;4962393;28;20125;-84
2023/06/26 05:57:14;;;;;;;6.95;3.83;;;22.60;94.70;;;;;;4977242;28;20015;-84
2023/06/26 05:59:42;;;;;;;6.32;3.80;;;22.60;94.30;;;;;;4978386;28;20026;-83
2023/06/26 06:02:08;;;;;;;7.90;3.80;;;22.60;94.30;;;;;;4978116;28;20061;-83
2023/06/26 06:04:34;;;;;;;10.52;4.18;;;22.60;94.20;;;;;;4962578;28;20034;-83
2023/06/26 06:07:00;;;;;;;6.47;3.55;;;22.60;94.20;;;;;;4962050;28;20433;-84
2023/06/26 06:09:26;;;;;;;7.10;3.78;;;22.60;94.20;;;;;;4962310;28;20112;-84
2023/06/26 06:11:51;;;;;;;7.38;3.78;;;22.60;94.20;;;;;;4995635;28;20022;-83
2023/06/26 06:14:17;;;;;;;4.68;3.35;;;22.70;94.10;;;;;;4962166;28;20039;-84
2023/06/26 06:16:43;;;;;;;6.60;3.50;;;22.70;94.00;;;;;;4962373;28;20027;-84
2023/06/26 06:19:11;;;;;;;8.13;3.75;;;22.70;93.90;;;;;;4960178;28;20125;-85
2023/06/26 06:21:36;;;;;;;8.30;3.47;;;22.70;93.90;;;;;;4962961;28;20072;-84
2023/06/26 06:24:03;;;;;;;5.05;3.17;;;22.70;93.70;;;;;;4962198;28;20042;-84
2023/06/26 06:26:28;;;;;;;7.78;3.55;;;22.70;93.60;;;;;;4962494;28;20448;-84
2023/06/26 06:28:54;;;;;;;6.30;3.00;;;22.70;93.60;;;;;;4979169;28;20027;-84
2023/06/26 06:31:20;;;;;;;5.05;3.10;;;22.70;93.60;;;;;;5007039;28;20018;-84
2023/06/26 06:33:46;;;;;;;6.35;3.33;;;22.70;93.50;;;;;;5018680;28;20066;-84
2023/06/26 06:36:11;;;;;;;5.45;3.03;;;22.70;93.40;;;;;;4985967;28;20014;-84
2023/06/26 06:38:37;;;;;;;5.68;2.75;;;22.80;93.40;;;;;;5017614;28;20070;-85
2023/06/26 06:41:02;;;;;;;5.85;2.97;;;22.80;93.40;;;;;;4984463;28;20037;-85
2023/06/26 06:43:28;;;;;;;5.00;3.10;;;22.80;93.30;;;;;;4966022;28;20031;-81
2023/06/26 06:45:54;;;;;;;5.07;2.80;;;22.90;93.30;;;;;;4962478;28;20026;-84
2023/06/26 06:48:19;;;;;;;5.18;3.05;;;22.90;93.10;;;;;;4978110;28;20037;-84
2023/06/26 06:50:45;;;;;;;5.47;2.83;;;22.90;93.00;;;;;;4978054;28;20034;-85
2023/06/26 06:53:11;;;;;;;5.95;2.70;;;23.00;93.00;;;;;;4977382;28;20488;-84
2023/06/26 06:55:36;;;;;;;5.10;2.80;;;23.00;92.90;;;;;;4977424;28;20038;-84
2023/06/26 06:58:02;;;;;;;5.43;2.63;;;23.10;92.60;;;;;;4977331;28;20030;-85
2023/06/26 07:00:28;;;;;;;3.22;2.40;;;23.00;92.20;;;;;;4961229;28;20037;-85
2023/06/26 07:02:54;;;;;;;4.15;2.58;;;23.00;91.90;;;;;;4960855;28;20034;-84
2023/06/26 07:05:20;;;;;;;4.47;2.45;;;23.00;91.70;;;;;;4960731;28;20031;-84
2023/06/26 07:07:45;;;;;;;3.88;2.45;;;23.00;91.60;;;;;;4960614;28;20034;-84
2023/06/26 07:10:13;;;;;;;4.10;2.10;;;23.00;91.70;;;;;;4976847;28;20030;-84
2023/06/26 07:12:39;;;;;;;3.17;2.22;;;23.10;91.80;;;;;;4976872;28;20476;-84
2023/06/26 07:15:06;;;;;;;3.63;2.40;;;23.20;91.90;;;;;;4976721;28;20062;-84
2023/06/26 07:17:33;;;;;;;3.78;2.40;;;23.30;91.90;;;;;;4976818;28;20022;-85
2023/06/26 07:20:00;;;;;;;5.05;2.70;;;23.30;91.90;;;;;;4960590;28;20122;-84
2023/06/26 07:22:26;;;;;;;5.65;2.38;;;23.40;91.90;;;;;;4976805;28;20172;-85
2023/06/26 07:24:52;;;;;;;4.15;2.45;;;23.40;91.50;;;;;;4960861;28;20523;-85
2023/06/26 07:27:18;;;;;;;4.57;2.28;;;23.40;91.30;;;;;;4976864;28;20112;-84
2023/06/26 07:29:44;;;;;;;5.10;2.00;;;23.40;91.00;;;;;;4977292;28;20468;-84
2023/06/26 07:32:10;;;;;;;3.03;2.13;;;23.50;91.20;;;;;;4944584;28;20031;-85
2023/06/26 07:34:36;;;;;;;3.33;2.10;;;23.60;91.20;;;;;;4960475;28;20042;-84
2023/06/26 07:37:02;;;;;;;5.30;2.55;;;23.60;91.10;;;;;;4976629;28;20121;-84
2023/06/26 07:39:27;;;;;;;4.80;2.40;;;23.70;91.10;;;;;;4976719;28;20027;-85
2023/06/26 07:41:53;;;;;;;4.43;2.40;;;23.70;91.10;;;;;;4960750;28;20121;-84
2023/06/26 07:44:19;;;;;;;4.85;2.97;;;23.70;91.20;;;;;;4976866;28;20044;-85
2023/06/26 07:46:44;;;;;;;3.72;2.65;;;23.80;91.30;;;;;;4976760;28;20085;-85
2023/06/26 07:49:11;;;;;;;5.05;2.80;;;23.80;91.30;;;;;;4976607;28;20473;-84
2023/06/26 07:51:37;;;;;;;4.15;2.47;;;23.90;91.30;;;;;;4976746;28;20113;-85
2023/06/26 07:54:03;;;;;;;3.13;2.15;;;23.90;91.20;;;;;;4976286;28;20065;-85
2023/06/26 07:56:28;;;;;;;3.67;2.75;;;23.90;91.20;;;;;;4960607;28;20503;-84
2023/06/26 07:58:54;;;;;;;3.78;2.80;;;24.00;91.20;;;;;;4944479;28;20464;-85
2023/06/26 08:01:20;;;;;;;2.60;2.22;;;24.00;91.10;;;;;;4993970;28;20057;-86
2023/06/26 08:03:45;;;;;;;4.15;2.40;;;24.10;91.20;;;;;;4960581;28;20502;-85
2023/06/26 08:06:11;;;;;;;3.63;2.63;;;24.10;91.20;;;;;;4944530;28;20027;-85
2023/06/26 08:08:37;;;;;;;5.25;2.70;;;24.20;91.10;;;;;;4960493;28;20030;-85
2023/06/26 08:11:02;;;;;;;3.00;2.17;;;24.10;91.00;;;;;;4960543;28;20030;-85
2023/06/26 08:13:28;;;;;;;3.90;2.78;;;24.20;91.00;;;;;;4944643;28;20022;-85
2023/06/26 08:15:54;;;;;;;3.45;2.20;;;24.20;90.80;;;;;;4960668;28;20081;-84
2023/06/26 08:18:20;;;;;;;4.95;2.40;;;24.20;90.80;;;;;;4960740;28;20023;-85
2023/06/26 08:20:45;;;;;;;3.78;2.42;;;24.20;90.60;;;;;;4958547;28;20047;-85
2023/06/26 08:23:11;;;;;;;6.10;2.50;;;24.10;90.70;;;;;;4928972;28;20023;-85
2023/06/26 08:25:37;;;;;;;3.28;2.15;;;24.10;90.70;;;;;;4960864;28;20022;-85
2023/06/26 08:28:05;;;;;;;3.47;2.20;;;24.10;90.60;;;;;;4929349;28;20154;-84
2023/06/26 08:30:32;;;;;;;3.78;2.28;;;24.10;90.60;;;;;;4963594;28;20536;-84
2023/06/26 08:32:58;;;;;;;4.00;2.50;;;24.10;90.60;;;;;;4964450;28;20023;-85
2023/06/26 08:35:24;;;;;;;5.15;2.90;;;24.20;90.60;;;;;;4982903;28;20058;-85
2023/06/26 08:37:49;;;;;;;7.68;2.75;;;24.20;90.60;;;;;;5001070;28;20015;-84
2023/06/26 08:40:19;;;;;;;4.03;2.65;;;24.20;90.60;;;;;;4984794;28;20079;-84
2023/06/26 08:42:44;;;;;;;3.58;2.58;;;24.20;90.40;;;;;;4967667;28;20035;-84
2023/06/26 08:45:11;;;;;;;6.35;3.20;;;24.20;90.40;;;;;;4982022;28;20069;-85
2023/06/26 08:47:37;;;;;;;4.22;2.42;;;24.20;90.40;;;;;;4958190;29;20027;-85
2023/06/26 08:50:13;;;;;;;4.45;2.88;;;24.20;90.40;;;;;;4947544;28;20034;-86
2023/06/26 08:53:07;;;;;;;3.88;2.58;;;24.20;90.40;;;;;;4945062;28;20030;-86
2023/06/26 08:55:38;;;;;;;3.67;2.58;;;24.20;90.30;;;;;;4978246;28;20034;-85
2023/06/26 08:58:04;;;;;;;3.40;2.47;;;24.20;90.40;;;;;;4978090;28;20030;-85
2023/06/26 09:00:30;;;;;;;5.50;2.67;;;24.30;90.30;;;;;;4960119;28;20034;-85
2023/06/26 09:02:56;;;;;;;3.75;2.38;;;24.30;90.00;;;;;;4960482;28;20085;-84
2023/06/26 09:05:22;;;;;;;2.63;1.85;;;24.30;89.80;;;;;;4960696;28;20042;-84
2023/06/26 09:07:48;;;;;;;4.20;1.92;;;24.40;89.70;;;;;;4960917;28;20023;-85
2023/06/26 09:10:14;;;;;;;3.45;1.70;;;24.40;89.30;;;;;;4945329;28;20035;-85
2023/06/26 09:12:39;;;;;;;3.25;2.00;;;24.40;88.70;;;;;;4946051;28;20030;-85
2023/06/26 09:15:06;;;;;;;3.50;1.85;;;24.40;87.90;;;;;;4945583;28;20400;-84
2023/06/26 09:17:39;;;;;;;3.00;2.10;;;24.40;88.10;;;;;;4962019;28;20496;-85
2023/06/26 09:20:07;;;;;;;3.08;1.70;;;24.40;87.60;;;;;;4975999;28;20118;-85
2023/06/26 09:22:36;;;;;;;3.80;2.10;;;24.40;87.90;;;;;;4960203;28;20092;-85
2023/06/26 09:25:03;;;;;;;4.75;1.65;;;24.40;88.00;;;;;;4944187;28;20070;-84
2023/06/26 09:27:30;;;;;;;1.95;1.30;;;24.40;87.70;;;;;;4975526;28;20031;-85
2023/06/26 09:29:58;;;;;;;2.72;1.70;;;24.40;87.50;;;;;;4959555;28;20034;-85
2023/06/26 09:32:30;;;;;;;3.53;2.05;;;24.40;87.00;;;;;;4977001;28;20050;-85
2023/06/26 09:34:56;;;;;;;2.17;1.27;;;24.40;86.40;;;;;;4977022;28;20038;-85
2023/06/26 09:37:24;;;;;;;2.78;1.50;;;24.40;86.50;;;;;;4943690;28;20035;-85
2023/06/26 09:39:51;;;;;;;4.78;1.70;;;24.40;86.30;;;;;;4944255;28;20038;-85
2023/06/26 09:42:18;;;;;;;5.03;1.80;;;24.40;86.40;;;;;;4959423;28;20019;-85
2023/06/26 09:44:45;;;;;;;4.10;1.33;;;24.30;86.20;;;;;;4977052;28;20039;-85
2023/06/26 09:47:10;;;;;;;4.18;1.40;;;24.30;85.90;;;;;;4943661;28;20037;-85
2023/06/26 09:49:36;;;;;;;3.30;1.40;;;24.40;86.20;;;;;;4958872;28;20027;-85
2023/06/26 09:52:02;;;;;;;1.88;1.08;;;24.40;85.00;;;;;;4943466;28;20385;-85
2023/06/26 09:54:30;;;;;;;1.92;1.10;;;24.40;84.30;;;;;;4959205;28;20109;-84
2023/06/26 09:57:06;;;;;;;7.43;1.30;;;24.40;83.60;;;;;;4927791;28;20375;-85
2023/06/26 09:59:33;;;;;;;2.63;1.20;;;24.40;82.90;;;;;;4959038;28;20027;-85
2023/06/26 10:02:00;;;;;;;2.60;1.55;;;24.30;82.40;;;;;;4976275;28;20055;-85
2023/06/26 10:04:26;;;;;;;2.22;1.20;;;24.30;82.80;;;;;;4942887;28;20038;-85
2023/06/26 10:06:56;;;;;;;3.10;1.30;;;24.30;82.80;;;;;;4959022;28;20484;-85
2023/06/26 10:09:23;;;;;;;2.03;1.10;;;24.40;82.80;;;;;;4958670;28;20027;-85
2023/06/26 10:11:51;;;;;;;6.60;1.00;;;24.50;83.00;;;;;;4958813;28;20047;-86
2023/06/26 10:14:18;;;;;;;2.65;1.10;;;24.50;81.90;;;;;;4959007;28;20042;-84
2023/06/26 10:16:46;;;;;;;3.45;1.30;;;24.50;80.90;;;;;;4942774;28;20118;-85
2023/06/26 10:19:14;;;;;;;1.30;0.90;;;24.50;80.40;;;;;;4958890;28;20027;-85
2023/06/26 10:21:41;;;;;;;2.65;1.38;;;24.50;80.20;;;;;;4962073;28;20092;-85
2023/06/26 10:24:10;;;;;;;4.03;1.25;;;24.40;81.00;;;;;;4978099;28;20045;-85
2023/06/26 10:26:38;;;;;;;2.33;1.10;;;24.50;80.00;;;;;;4995336;28;20026;-85
2023/06/26 10:29:05;;;;;;;2.45;1.13;;;24.50;79.50;;;;;;4995096;28;20027;-85
2023/06/26 10:31:32;;;;;;;3.45;1.42;;;24.50;79.30;;;;;;4962222;28;20026;-85
2023/06/26 10:33:58;;;;;;;2.88;1.25;;;24.50;79.40;;;;;;4996653;28;20065;-85
2023/06/26 10:36:30;;;;;;;1.95;1.10;;;24.60;79.60;;;;;;4946950;28;20084;-85
2023/06/26 10:39:04;;;;;;;2.42;1.08;;;24.60;79.60;;;;;;4997118;28;20022;-85
2023/06/26 10:41:37;;;;;;;5.30;1.20;;;24.70;79.80;;;;;;4981784;28;20022;-85
2023/06/26 10:44:16;;;;;;;3.05;1.30;;;24.70;79.80;;;;;;4999726;28;20101;-85
2023/06/26 10:46:53;;;;;;;2.78;1.20;;;24.70;79.60;;;;;;5017151;28;20046;-85
2023/06/26 10:49:26;;;;;;;2.72;1.17;;;24.60;79.60;;;;;;4999598;28;20030;-83
2023/06/26 10:51:53;;;;;;;2.97;1.00;;;24.70;79.80;;;;;;4999233;28;20081;-85
2023/06/26 10:54:20;;;;;;;1.73;1.10;;;24.70;79.50;;;;;;4998141;28;20046;-84
2023/06/26 10:56:50;;;;;;;2.88;1.15;;;24.70;79.40;;;;;;4984267;28;20022;-84
2023/06/26 10:59:21;;;;;;;2.42;1.17;;;24.80;78.60;;;;;;4978167;28;20563;-85
2023/06/26 11:01:55;;;;;;;1.50;0.95;;;24.80;78.60;;;;;;4978005;28;20027;-85
2023/06/26 11:04:46;;;;;;;2.63;1.00;;;24.80;78.10;;;;;;4977317;28;20124;-84
2023/06/26 11:07:22;;;;;;;2.30;1.20;;;24.80;78.00;;;;;;4994531;28;20049;-84
2023/06/26 11:09:58;;;;;;;2.20;0.90;;;24.80;78.10;;;;;;4994383;28;20025;-85
2023/06/26 11:12:44;;;;;;;3.40;1.42;;;24.80;77.70;;;;;;4976682;28;20034;-86
2023/06/26 11:15:10;;;;;;;1.23;1.00;;;24.80;76.50;;;;;;4994361;28;20109;-85
2023/06/26 11:17:37;;;;;;;1.45;1.00;;;24.70;76.20;;;;;;4994156;28;20029;-85
2023/06/26 11:20:08;;;;;;;3.38;1.00;;;24.70;76.70;;;;;;4969172;28;20063;-84
2023/06/26 11:22:38;;;;;;;3.40;0.90;;;24.70;76.90;;;;;;4957339;28;20042;-85
2023/06/26 11:25:05;;;;;;;2.08;1.00;;;24.70;76.60;;;;;;4957277;28;20030;-85
2023/06/26 11:27:41;;;;;;;1.63;0.75;;;24.70;76.50;;;;;;4957288;28;20384;-84
2023/06/26 11:30:22;;;;;;;1.27;0.75;;;24.70;76.20;;;;;;4957526;28;20548;-84
2023/06/26 11:32:47;;;;;;;2.47;1.30;;;24.80;76.30;;;;;;4957213;28;20050;-84
2023/06/26 11:35:13;;;;;;;1.92;1.20;;;24.70;76.30;;;;;;4941490;28;20077;-83
2023/06/26 11:37:39;;;;;;;2.72;1.20;;;24.80;76.50;;;;;;4974305;28;20085;-84
2023/06/26 11:40:21;;;;;;;2.72;1.10;;;24.80;76.30;;;;;;4925675;28;20068;-85
2023/06/26 11:42:47;;;;;;;1.67;0.82;;;24.80;75.70;;;;;;4974601;28;20031;-84
2023/06/26 11:45:12;;;;;;;1.85;1.00;;;24.70;75.50;;;;;;4925458;28;20031;-84
2023/06/26 11:47:39;;;;;;;3.03;1.08;;;24.70;75.50;;;;;;4974348;28;20027;-85
2023/06/26 11:50:05;;;;;;;3.83;1.08;;;24.70;75.40;;;;;;4974611;28;20248;-85
2023/06/26 11:52:33;;;;;;;2.55;1.40;;;24.70;75.60;;;;;;4957198;28;20042;-85
2023/06/26 11:54:58;;;;;;;1.27;0.98;;;24.70;76.00;;;;;;4957525;28;20038;-84
2023/06/26 11:57:24;;;;;;;2.70;1.30;;;24.80;75.70;;;;;;4929231;28;20027;-84
2023/06/26 11:59:51;;;;;;;2.05;1.17;;;24.70;75.80;;;;;;4944964;28;20420;-84
2023/06/26 12:02:17;;;;;;;2.25;1.10;;;24.80;75.90;;;;;;4945394;28;20031;-85
2023/06/26 12:04:44;;;;;;;2.15;0.98;;;24.70;75.70;;;;;;4944767;28;20507;-85
2023/06/26 12:07:11;;;;;;;1.65;0.80;;;24.70;75.50;;;;;;4960668;28;20042;-86
2023/06/26 12:09:48;;;;;;;4.40;1.40;;;24.70;75.50;;;;;;4960600;28;20121;-84
2023/06/26 12:12:17;;;;;;;2.63;1.15;;;24.70;75.30;;;;;;4960522;28;20062;-85
2023/06/26 12:14:42;;;;;;;1.98;1.30;;;24.70;75.30;;;;;;4960660;28;20027;-84
2023/06/26 12:17:13;;;;;;;1.38;0.88;;;24.70;75.60;;;;;;4978421;28;20101;-84
2023/06/26 12:19:43;;;;;;;1.13;0.75;;;24.70;74.70;;;;;;4964602;28;20058;-84
2023/06/26 12:22:09;;;;;;;3.25;1.42;;;24.70;74.50;;;;;;4964814;28;20041;-84
2023/06/26 12:24:39;;;;;;;23.27;4.60;;;24.70;74.60;;;;;;4979930;28;20026;-85
2023/06/26 12:27:12;;;;;;;28.33;5.43;;;24.80;74.40;;;;;;4963885;28;20121;-85
2023/06/26 12:29:40;;;;;;;7.43;1.92;;;24.80;74.10;;;;;;4979920;28;20084;-85
2023/06/26 12:32:10;;;;;;;3.38;1.38;;;24.80;73.90;;;;;;4997380;28;20014;-84
2023/06/26 12:34:38;;;;;;;1.75;1.00;;;24.80;73.70;;;;;;4995821;28;20038;-85
2023/06/26 12:37:07;;;;;;;3.30;1.08;;;24.80;73.60;;;;;;4997607;28;20034;-85
2023/06/26 12:39:57;;;;;;;32.22;7.28;;;24.90;73.80;;;;;;4998040;28;20018;-85
2023/06/26 12:42:25;;;;;;;11.32;3.17;;;24.90;73.40;;;;;;4998581;28;20033;-85
2023/06/26 12:44:52;;;;;;;9.40;2.55;;;24.90;73.70;;;;;;4975605;28;20038;-84
2023/06/26 12:47:23;;;;;;;43.28;6.70;;;25.00;73.60;;;;;;4973398;28;20113;-84